sensor_id;sensor_type;location;lat;lon;timestamp;temperature;humidity
15765;DHT22;7983;50.744;7.086;2023-09-12T00:00:22;25.10;99.90
15765;DHT22;7983;50.744;7.086;2023-09-12T00:02:48;25.10;99.90
15765;DHT22;7983;50.744;7.086;2023-09-12T00:05:19;25.10;99.90
15765;DHT22;7983;50.744;7.086;2023-09-12T00:07:44;25.00;99.90
15765;DHT22;7983;50.744;7.086;2023-09-12T00:10:10;25.00;99.90
15765;DHT22;7983;50.744;7.086;2023-09-12T00:12:36;24.90;99.90
15765;DHT22;7983;50.744;7.086;2023-09-12T00:15:04;24.90;99.90
15765;DHT22;7983;50.744;7.086;2023-09-12T00:17:32;24.90;99.90
15765;DHT22;7983;50.744;7.086;2023-09-12T00:19:58;24.90;99.90
15765;DHT22;7983;50.744;7.086;2023-09-12T00:22:23;24.80;99.90
15765;DHT22;7983;50.744;7.086;2023-09-12T00:24:51;24.80;99.90
15765;DHT22;7983;50.744;7.086;2023-09-12T00:27:19;24.80;99.90
15765;DHT22;7983;50.744;7.086;2023-09-12T00:29:44;24.70;99.90
15765;DHT22;7983;50.744;7.086;2023-09-12T00:32:10;24.70;99.90
15765;DHT22;7983;50.744;7.086;2023-09-12T00:34:35;24.70;99.90
15765;DHT22;7983;50.744;7.086;2023-09-12T00:37:06;24.70;99.90
15765;DHT22;7983;50.744;7.086;2023-09-12T00:39:37;24.70;99.90
15765;DHT22;7983;50.744;7.086;2023-09-12T00:42:03;24.60;99.90
15765;DHT22;7983;50.744;7.086;2023-09-12T00:44:33;24.60;99.90
15765;DHT22;7983;50.744;7.086;2023-09-12T00:46:59;24.60;99.90
15765;DHT22;7983;50.744;7.086;2023-09-12T00:49:26;24.50;99.90
15765;DHT22;7983;50.744;7.086;2023-09-12T00:51:53;24.50;99.90
15765;DHT22;7983;50.744;7.086;2023-09-12T00:54:20;24.40;99.90
15765;DHT22;7983;50.744;7.086;2023-09-12T00:56:46;24.40;99.90
15765;DHT22;7983;50.744;7.086;2023-09-12T00:59:12;24.30;99.90
15765;DHT22;7983;50.744;7.086;2023-09-12T01:01:38;24.30;99.90
15765;DHT22;7983;50.744;7.086;2023-09-12T01:04:04;24.30;99.90
15765;DHT22;7983;50.744;7.086;2023-09-12T01:06:31;24.20;99.90
15765;DHT22;7983;50.744;7.086;2023-09-12T01:08:59;24.20;99.90
15765;DHT22;7983;50.744;7.086;2023-09-12T01:11:26;24.10;99.90
15765;DHT22;7983;50.744;7.086;2023-09-12T01:13:52;24.10;99.90
15765;DHT22;7983;50.744;7.086;2023-09-12T01:16:19;24.10;99.90
15765;DHT22;7983;50.744;7.086;2023-09-12T01:18:45;24.00;99.90
15765;DHT22;7983;50.744;7.086;2023-09-12T01:21:49;24.00;99.90
15765;DHT22;7983;50.744;7.086;2023-09-12T01:30:18;23.70;99.90
15765;DHT22;7983;50.744;7.086;2023-09-12T01:32:48;23.70;99.90
15765;DHT22;7983;50.744;7.086;2023-09-12T01:35:15;23.60;99.90
15765;DHT22;7983;50.744;7.086;2023-09-12T01:37:42;23.60;99.90
15765;DHT22;7983;50.744;7.086;2023-09-12T01:40:09;23.50;99.90
15765;DHT22;7983;50.744;7.086;2023-09-12T01:42:37;23.40;99.90
15765;DHT22;7983;50.744;7.086;2023-09-12T01:45:04;23.40;99.90
15765;DHT22;7983;50.744;7.086;2023-09-12T01:47:33;23.30;99.90
15765;DHT22;7983;50.744;7.086;2023-09-12T01:50:03;23.30;99.90
15765;DHT22;7983;50.744;7.086;2023-09-12T01:52:32;23.30;99.90
15765;DHT22;7983;50.744;7.086;2023-09-12T01:55:01;23.20;99.90
15765;DHT22;7983;50.744;7.086;2023-09-12T01:57:27;23.20;99.90
15765;DHT22;7983;50.744;7.086;2023-09-12T01:59:53;23.20;99.90
15765;DHT22;7983;50.744;7.086;2023-09-12T02:02:21;23.20;99.90
15765;DHT22;7983;50.744;7.086;2023-09-12T02:07:39;23.10;99.90
15765;DHT22;7983;50.744;7.086;2023-09-12T02:10:06;23.10;99.90
15765;DHT22;7983;50.744;7.086;2023-09-12T02:12:32;23.00;99.90
15765;DHT22;7983;50.744;7.086;2023-09-12T02:15:00;23.00;99.90
15765;DHT22;7983;50.744;7.086;2023-09-12T02:17:25;23.00;99.90
15765;DHT22;7983;50.744;7.086;2023-09-12T02:19:51;22.90;99.90
15765;DHT22;7983;50.744;7.086;2023-09-12T02:22:17;22.90;99.90
15765;DHT22;7983;50.744;7.086;2023-09-12T02:24:44;22.90;99.90
15765;DHT22;7983;50.744;7.086;2023-09-12T02:27:10;22.80;99.90
15765;DHT22;7983;50.744;7.086;2023-09-12T02:29:38;22.80;99.90
15765;DHT22;7983;50.744;7.086;2023-09-12T02:32:05;22.70;99.90
15765;DHT22;7983;50.744;7.086;2023-09-12T02:34:32;22.60;99.90
15765;DHT22;7983;50.744;7.086;2023-09-12T02:37:00;22.60;99.90
15765;DHT22;7983;50.744;7.086;2023-09-12T02:39:28;22.60;99.90
15765;DHT22;7983;50.744;7.086;2023-09-12T02:41:56;22.50;99.90
15765;DHT22;7983;50.744;7.086;2023-09-12T02:44:22;22.50;99.90
15765;DHT22;7983;50.744;7.086;2023-09-12T02:46:50;22.50;99.90
15765;DHT22;7983;50.744;7.086;2023-09-12T02:49:16;22.50;99.90
15765;DHT22;7983;50.744;7.086;2023-09-12T02:51:44;22.50;99.90
15765;DHT22;7983;50.744;7.086;2023-09-12T02:54:13;22.50;99.90
15765;DHT22;7983;50.744;7.086;2023-09-12T02:56:40;22.40;99.90
15765;DHT22;7983;50.744;7.086;2023-09-12T02:59:08;22.40;99.90
15765;DHT22;7983;50.744;7.086;2023-09-12T03:01:36;22.40;99.90
15765;DHT22;7983;50.744;7.086;2023-09-12T03:04:02;22.40;99.90
15765;DHT22;7983;50.744;7.086;2023-09-12T03:06:28;22.40;99.90
15765;DHT22;7983;50.744;7.086;2023-09-12T03:08:56;22.40;99.90
15765;DHT22;7983;50.744;7.086;2023-09-12T03:11:22;22.30;99.90
15765;DHT22;7983;50.744;7.086;2023-09-12T03:13:47;22.30;99.90
15765;DHT22;7983;50.744;7.086;2023-09-12T03:16:14;22.30;99.90
15765;DHT22;7983;50.744;7.086;2023-09-12T03:18:40;22.30;99.90
15765;DHT22;7983;50.744;7.086;2023-09-12T03:21:08;22.30;99.90
15765;DHT22;7983;50.744;7.086;2023-09-12T03:23:34;22.20;99.90
15765;DHT22;7983;50.744;7.086;2023-09-12T03:26:03;22.20;99.90
15765;DHT22;7983;50.744;7.086;2023-09-12T03:28:30;22.20;99.90
15765;DHT22;7983;50.744;7.086;2023-09-12T03:31:11;22.20;99.90
15765;DHT22;7983;50.744;7.086;2023-09-12T03:33:40;22.20;99.90
15765;DHT22;7983;50.744;7.086;2023-09-12T03:36:07;22.20;99.90
15765;DHT22;7983;50.744;7.086;2023-09-12T03:38:33;22.10;99.90
15765;DHT22;7983;50.744;7.086;2023-09-12T03:40:59;22.10;99.90
15765;DHT22;7983;50.744;7.086;2023-09-12T03:43:25;22.10;99.90
15765;DHT22;7983;50.744;7.086;2023-09-12T03:45:55;22.00;99.90
15765;DHT22;7983;50.744;7.086;2023-09-12T03:48:23;22.00;99.90
15765;DHT22;7983;50.744;7.086;2023-09-12T03:50:51;21.90;99.90
15765;DHT22;7983;50.744;7.086;2023-09-12T03:53:20;21.80;99.90
15765;DHT22;7983;50.744;7.086;2023-09-12T03:55:48;21.80;99.90
15765;DHT22;7983;50.744;7.086;2023-09-12T03:58:13;21.70;99.90
15765;DHT22;7983;50.744;7.086;2023-09-12T04:00:39;21.70;99.90
15765;DHT22;7983;50.744;7.086;2023-09-12T04:03:04;21.70;99.90
15765;DHT22;7983;50.744;7.086;2023-09-12T04:05:30;21.60;99.90
15765;DHT22;7983;50.744;7.086;2023-09-12T04:07:56;21.60;99.90
15765;DHT22;7983;50.744;7.086;2023-09-12T04:10:21;21.60;99.90
15765;DHT22;7983;50.744;7.086;2023-09-12T04:12:47;21.60;99.90
15765;DHT22;7983;50.744;7.086;2023-09-12T04:15:13;21.50;99.90
15765;DHT22;7983;50.744;7.086;2023-09-12T04:17:38;21.50;99.90
15765;DHT22;7983;50.744;7.086;2023-09-12T04:20:04;21.50;99.90
15765;DHT22;7983;50.744;7.086;2023-09-12T04:22:30;21.40;99.90
15765;DHT22;7983;50.744;7.086;2023-09-12T04:24:58;21.40;99.90
15765;DHT22;7983;50.744;7.086;2023-09-12T04:27:24;21.40;99.90
15765;DHT22;7983;50.744;7.086;2023-09-12T04:29:49;21.40;99.90
15765;DHT22;7983;50.744;7.086;2023-09-12T04:32:17;21.50;99.90
15765;DHT22;7983;50.744;7.086;2023-09-12T04:34:51;21.40;99.90
15765;DHT22;7983;50.744;7.086;2023-09-12T04:37:17;21.40;99.90
15765;DHT22;7983;50.744;7.086;2023-09-12T04:39:43;21.40;99.90
15765;DHT22;7983;50.744;7.086;2023-09-12T04:42:11;21.40;99.90
15765;DHT22;7983;50.744;7.086;2023-09-12T04:44:41;21.40;99.90
15765;DHT22;7983;50.744;7.086;2023-09-12T04:47:07;21.50;99.90
15765;DHT22;7983;50.744;7.086;2023-09-12T04:49:33;21.40;99.90
15765;DHT22;7983;50.744;7.086;2023-09-12T04:52:01;21.50;99.90
15765;DHT22;7983;50.744;7.086;2023-09-12T04:54:27;21.50;99.90
15765;DHT22;7983;50.744;7.086;2023-09-12T04:56:55;21.50;99.90
15765;DHT22;7983;50.744;7.086;2023-09-12T04:59:21;21.50;99.90
15765;DHT22;7983;50.744;7.086;2023-09-12T05:01:49;21.60;99.90
15765;DHT22;7983;50.744;7.086;2023-09-12T05:04:14;21.60;99.90
15765;DHT22;7983;50.744;7.086;2023-09-12T05:06:40;21.70;99.90
15765;DHT22;7983;50.744;7.086;2023-09-12T05:09:07;21.70;99.90
15765;DHT22;7983;50.744;7.086;2023-09-12T05:11:36;21.70;99.90
15765;DHT22;7983;50.744;7.086;2023-09-12T05:14:02;21.70;99.90
15765;DHT22;7983;50.744;7.086;2023-09-12T05:16:30;21.70;99.90
15765;DHT22;7983;50.744;7.086;2023-09-12T05:18:58;21.70;99.90
15765;DHT22;7983;50.744;7.086;2023-09-12T05:21:24;21.70;99.90
15765;DHT22;7983;50.744;7.086;2023-09-12T05:23:50;21.60;99.90
15765;DHT22;7983;50.744;7.086;2023-09-12T05:26:18;21.60;99.90
15765;DHT22;7983;50.744;7.086;2023-09-12T05:28:43;21.60;99.90
15765;DHT22;7983;50.744;7.086;2023-09-12T05:31:09;21.50;99.90
15765;DHT22;7983;50.744;7.086;2023-09-12T05:33:34;21.50;99.90
15765;DHT22;7983;50.744;7.086;2023-09-12T05:36:02;21.40;99.90
15765;DHT22;7983;50.744;7.086;2023-09-12T05:38:28;21.40;99.90
15765;DHT22;7983;50.744;7.086;2023-09-12T05:40:54;21.40;99.90
15765;DHT22;7983;50.744;7.086;2023-09-12T05:43:22;21.40;99.90
15765;DHT22;7983;50.744;7.086;2023-09-12T05:45:48;21.40;99.90
15765;DHT22;7983;50.744;7.086;2023-09-12T05:48:13;21.30;99.90
15765;DHT22;7983;50.744;7.086;2023-09-12T05:50:39;21.40;99.90
15765;DHT22;7983;50.744;7.086;2023-09-12T05:53:05;21.40;99.90
15765;DHT22;7983;50.744;7.086;2023-09-12T05:55:30;21.40;99.90
15765;DHT22;7983;50.744;7.086;2023-09-12T05:57:56;21.40;99.90
15765;DHT22;7983;50.744;7.086;2023-09-12T06:00:24;21.40;99.90
15765;DHT22;7983;50.744;7.086;2023-09-12T06:02:50;21.50;99.90
15765;DHT22;7983;50.744;7.086;2023-09-12T06:05:16;21.50;99.90
15765;DHT22;7983;50.744;7.086;2023-09-12T06:07:44;21.60;99.90
15765;DHT22;7983;50.744;7.086;2023-09-12T06:10:15;21.60;99.90
15765;DHT22;7983;50.744;7.086;2023-09-12T06:12:40;21.70;99.90
15765;DHT22;7983;50.744;7.086;2023-09-12T06:15:06;21.70;99.90
15765;DHT22;7983;50.744;7.086;2023-09-12T06:17:32;21.70;99.90
15765;DHT22;7983;50.744;7.086;2023-09-12T06:19:58;21.80;99.90
15765;DHT22;7983;50.744;7.086;2023-09-12T06:22:28;21.90;99.90
15765;DHT22;7983;50.744;7.086;2023-09-12T06:24:54;21.90;99.90
15765;DHT22;7983;50.744;7.086;2023-09-12T06:27:20;22.00;99.90
15765;DHT22;7983;50.744;7.086;2023-09-12T06:29:48;22.00;99.90
15765;DHT22;7983;50.744;7.086;2023-09-12T06:32:18;22.00;99.90
15765;DHT22;7983;50.744;7.086;2023-09-12T06:34:46;22.10;99.90
15765;DHT22;7983;50.744;7.086;2023-09-12T06:37:14;22.20;99.90
15765;DHT22;7983;50.744;7.086;2023-09-12T06:39:39;22.20;99.90
15765;DHT22;7983;50.744;7.086;2023-09-12T06:42:05;22.20;99.90
15765;DHT22;7983;50.744;7.086;2023-09-12T06:44:31;22.20;99.90
15765;DHT22;7983;50.744;7.086;2023-09-12T06:46:56;22.20;99.90
15765;DHT22;7983;50.744;7.086;2023-09-12T06:49:25;22.30;99.90
15765;DHT22;7983;50.744;7.086;2023-09-12T06:51:55;22.30;99.90
15765;DHT22;7983;50.744;7.086;2023-09-12T06:54:20;22.40;99.90
15765;DHT22;7983;50.744;7.086;2023-09-12T06:56:46;22.50;99.90
15765;DHT22;7983;50.744;7.086;2023-09-12T06:59:12;22.50;99.90
15765;DHT22;7983;50.744;7.086;2023-09-12T07:01:37;22.60;99.90
15765;DHT22;7983;50.744;7.086;2023-09-12T07:04:03;22.70;99.90
15765;DHT22;7983;50.744;7.086;2023-09-12T07:06:29;22.70;99.90
15765;DHT22;7983;50.744;7.086;2023-09-12T07:08:57;22.80;99.90
15765;DHT22;7983;50.744;7.086;2023-09-12T07:11:23;22.90;99.90
15765;DHT22;7983;50.744;7.086;2023-09-12T07:13:49;23.00;99.90
15765;DHT22;7983;50.744;7.086;2023-09-12T07:16:15;23.00;99.90
15765;DHT22;7983;50.744;7.086;2023-09-12T07:18:40;23.20;99.90
15765;DHT22;7983;50.744;7.086;2023-09-12T07:21:06;23.20;99.90
15765;DHT22;7983;50.744;7.086;2023-09-12T07:23:32;23.30;99.90
15765;DHT22;7983;50.744;7.086;2023-09-12T07:26:00;23.40;99.90
15765;DHT22;7983;50.744;7.086;2023-09-12T07:28:29;23.50;99.90
15765;DHT22;7983;50.744;7.086;2023-09-12T07:30:58;23.50;99.90
15765;DHT22;7983;50.744;7.086;2023-09-12T07:33:26;23.70;99.90
15765;DHT22;7983;50.744;7.086;2023-09-12T07:35:52;23.70;99.90
15765;DHT22;7983;50.744;7.086;2023-09-12T07:38:20;23.90;99.90
15765;DHT22;7983;50.744;7.086;2023-09-12T07:40:45;23.90;99.90
15765;DHT22;7983;50.744;7.086;2023-09-12T07:43:11;24.00;99.90
15765;DHT22;7983;50.744;7.086;2023-09-12T07:45:37;24.10;99.90
15765;DHT22;7983;50.744;7.086;2023-09-12T07:48:07;24.20;99.90
15765;DHT22;7983;50.744;7.086;2023-09-12T07:50:34;24.30;99.90
15765;DHT22;7983;50.744;7.086;2023-09-12T07:52:59;24.30;99.90
15765;DHT22;7983;50.744;7.086;2023-09-12T07:55:30;24.40;99.90
15765;DHT22;7983;50.744;7.086;2023-09-12T07:58:02;24.40;99.90
15765;DHT22;7983;50.744;7.086;2023-09-12T08:00:28;24.50;99.90
15765;DHT22;7983;50.744;7.086;2023-09-12T08:02:53;24.50;99.90
15765;DHT22;7983;50.744;7.086;2023-09-12T08:05:21;24.60;99.90
15765;DHT22;7983;50.744;7.086;2023-09-12T08:07:47;24.60;99.90
15765;DHT22;7983;50.744;7.086;2023-09-12T08:10:12;24.60;99.90
15765;DHT22;7983;50.744;7.086;2023-09-12T08:12:38;24.70;99.90
15765;DHT22;7983;50.744;7.086;2023-09-12T08:15:07;24.70;99.90
15765;DHT22;7983;50.744;7.086;2023-09-12T08:17:35;24.70;99.90
15765;DHT22;7983;50.744;7.086;2023-09-12T08:20:03;24.70;99.90
15765;DHT22;7983;50.744;7.086;2023-09-12T08:22:29;24.70;99.90
15765;DHT22;7983;50.744;7.086;2023-09-12T08:24:57;24.80;99.90
15765;DHT22;7983;50.744;7.086;2023-09-12T08:27:23;24.80;99.90
15765;DHT22;7983;50.744;7.086;2023-09-12T08:29:49;24.80;99.90
15765;DHT22;7983;50.744;7.086;2023-09-12T08:32:14;24.90;99.90
15765;DHT22;7983;50.744;7.086;2023-09-12T08:34:40;24.90;99.90
15765;DHT22;7983;50.744;7.086;2023-09-12T08:37:05;24.90;99.90
15765;DHT22;7983;50.744;7.086;2023-09-12T08:39:43;25.00;99.90
15765;DHT22;7983;50.744;7.086;2023-09-12T08:42:13;25.10;99.90
15765;DHT22;7983;50.744;7.086;2023-09-12T08:44:40;25.10;99.90
15765;DHT22;7983;50.744;7.086;2023-09-12T08:47:09;25.20;99.90
15765;DHT22;7983;50.744;7.086;2023-09-12T08:49:40;25.20;99.90
15765;DHT22;7983;50.744;7.086;2023-09-12T08:52:07;25.20;99.90
15765;DHT22;7983;50.744;7.086;2023-09-12T08:54:33;25.20;99.90
15765;DHT22;7983;50.744;7.086;2023-09-12T08:57:01;25.30;99.90
15765;DHT22;7983;50.744;7.086;2023-09-12T08:59:31;25.40;99.90
15765;DHT22;7983;50.744;7.086;2023-09-12T09:01:58;25.40;99.90
15765;DHT22;7983;50.744;7.086;2023-09-12T09:04:25;25.50;99.90
15765;DHT22;7983;50.744;7.086;2023-09-12T09:06:58;25.50;99.90
15765;DHT22;7983;50.744;7.086;2023-09-12T09:09:26;25.60;99.90
15765;DHT22;7983;50.744;7.086;2023-09-12T09:11:55;25.70;99.90
15765;DHT22;7983;50.744;7.086;2023-09-12T09:14:21;25.70;99.90
15765;DHT22;7983;50.744;7.086;2023-09-12T09:16:46;25.80;99.90
15765;DHT22;7983;50.744;7.086;2023-09-12T09:19:12;25.90;99.90
15765;DHT22;7983;50.744;7.086;2023-09-12T09:21:38;26.00;99.90
15765;DHT22;7983;50.744;7.086;2023-09-12T09:24:10;26.00;99.90
15765;DHT22;7983;50.744;7.086;2023-09-12T09:26:50;26.10;99.90
15765;DHT22;7983;50.744;7.086;2023-09-12T09:29:17;26.10;99.90
15765;DHT22;7983;50.744;7.086;2023-09-12T09:31:45;26.10;99.90
15765;DHT22;7983;50.744;7.086;2023-09-12T09:34:16;26.10;99.90
15765;DHT22;7983;50.744;7.086;2023-09-12T09:36:50;26.20;99.90
15765;DHT22;7983;50.744;7.086;2023-09-12T09:39:18;26.20;99.90
15765;DHT22;7983;50.744;7.086;2023-09-12T09:41:51;26.30;99.90
15765;DHT22;7983;50.744;7.086;2023-09-12T09:44:26;26.30;99.90
15765;DHT22;7983;50.744;7.086;2023-09-12T09:46:59;26.30;99.90
15765;DHT22;7983;50.744;7.086;2023-09-12T09:49:33;26.40;99.90
15765;DHT22;7983;50.744;7.086;2023-09-12T09:51:59;26.50;99.90
15765;DHT22;7983;50.744;7.086;2023-09-12T09:54:28;26.70;99.90
15765;DHT22;7983;50.744;7.086;2023-09-12T09:56:56;27.00;99.90
15765;DHT22;7983;50.744;7.086;2023-09-12T09:59:23;27.40;99.90
15765;DHT22;7983;50.744;7.086;2023-09-12T10:01:50;27.70;99.90
15765;DHT22;7983;50.744;7.086;2023-09-12T10:04:17;27.90;99.90
15765;DHT22;7983;50.744;7.086;2023-09-12T10:06:46;28.10;99.90
15765;DHT22;7983;50.744;7.086;2023-09-12T10:09:16;28.50;99.90
15765;DHT22;7983;50.744;7.086;2023-09-12T10:11:46;28.90;99.90
15765;DHT22;7983;50.744;7.086;2023-09-12T10:14:19;29.20;99.90
15765;DHT22;7983;50.744;7.086;2023-09-12T10:16:48;29.50;99.90
15765;DHT22;7983;50.744;7.086;2023-09-12T10:24:33;30.00;99.90
15765;DHT22;7983;50.744;7.086;2023-09-12T10:27:01;30.10;99.90
15765;DHT22;7983;50.744;7.086;2023-09-12T10:29:28;30.20;99.90
15765;DHT22;7983;50.744;7.086;2023-09-12T10:31:57;30.20;99.90
15765;DHT22;7983;50.744;7.086;2023-09-12T10:34:24;30.20;99.90
15765;DHT22;7983;50.744;7.086;2023-09-12T10:36:51;30.10;99.90
15765;DHT22;7983;50.744;7.086;2023-09-12T10:39:19;30.00;99.90
15765;DHT22;7983;50.744;7.086;2023-09-12T10:41:46;29.80;99.90
15765;DHT22;7983;50.744;7.086;2023-09-12T10:44:17;29.60;99.90
15765;DHT22;7983;50.744;7.086;2023-09-12T10:46:47;29.50;99.90
15765;DHT22;7983;50.744;7.086;2023-09-12T10:49:15;29.60;99.90
15765;DHT22;7983;50.744;7.086;2023-09-12T10:51:42;29.60;99.90
15765;DHT22;7983;50.744;7.086;2023-09-12T10:54:09;29.80;99.90
15765;DHT22;7983;50.744;7.086;2023-09-12T10:56:40;30.00;99.90
15765;DHT22;7983;50.744;7.086;2023-09-12T11:01:33;30.40;99.90
15765;DHT22;7983;50.744;7.086;2023-09-12T11:06:49;30.90;99.90
15765;DHT22;7983;50.744;7.086;2023-09-12T11:12:02;31.40;99.90
15765;DHT22;7983;50.744;7.086;2023-09-12T11:14:28;31.60;99.90
15765;DHT22;7983;50.744;7.086;2023-09-12T11:19:46;31.70;99.90
15765;DHT22;7983;50.744;7.086;2023-09-12T11:22:44;31.60;99.90
15765;DHT22;7983;50.744;7.086;2023-09-12T11:25:24;31.60;99.90
15765;DHT22;7983;50.744;7.086;2023-09-12T11:30:20;31.70;99.90
15765;DHT22;7983;50.744;7.086;2023-09-12T11:32:49;31.70;99.90
15765;DHT22;7983;50.744;7.086;2023-09-12T11:35:16;31.80;99.90
15765;DHT22;7983;50.744;7.086;2023-09-12T11:37:52;31.80;99.90
15765;DHT22;7983;50.744;7.086;2023-09-12T11:40:41;31.70;99.90
15765;DHT22;7983;50.744;7.086;2023-09-12T11:43:06;31.70;99.90
15765;DHT22;7983;50.744;7.086;2023-09-12T11:45:33;31.80;99.90
15765;DHT22;7983;50.744;7.086;2023-09-12T11:48:02;31.70;99.90
15765;DHT22;7983;50.744;7.086;2023-09-12T11:50:39;31.80;99.90
15765;DHT22;7983;50.744;7.086;2023-09-12T11:53:07;31.80;99.90
15765;DHT22;7983;50.744;7.086;2023-09-12T11:55:42;31.80;99.90
15765;DHT22;7983;50.744;7.086;2023-09-12T11:58:08;31.80;99.90
15765;DHT22;7983;50.744;7.086;2023-09-12T12:00:34;31.90;99.90
15765;DHT22;7983;50.744;7.086;2023-09-12T12:03:02;31.90;99.90
15765;DHT22;7983;50.744;7.086;2023-09-12T12:05:32;31.90;99.90
15765;DHT22;7983;50.744;7.086;2023-09-12T12:08:00;31.90;99.90
15765;DHT22;7983;50.744;7.086;2023-09-12T12:10:28;31.90;99.90
15765;DHT22;7983;50.744;7.086;2023-09-12T12:12:54;31.90;99.90
15765;DHT22;7983;50.744;7.086;2023-09-12T12:15:20;31.90;99.90
15765;DHT22;7983;50.744;7.086;2023-09-12T12:17:48;31.90;99.90
15765;DHT22;7983;50.744;7.086;2023-09-12T12:20:14;31.90;99.90
15765;DHT22;7983;50.744;7.086;2023-09-12T12:22:44;31.90;99.90
15765;DHT22;7983;50.744;7.086;2023-09-12T12:25:11;31.80;99.90
15765;DHT22;7983;50.744;7.086;2023-09-12T12:27:42;31.80;99.90
15765;DHT22;7983;50.744;7.086;2023-09-12T12:30:10;31.70;99.90
15765;DHT22;7983;50.744;7.086;2023-09-12T12:32:40;31.70;99.90
15765;DHT22;7983;50.744;7.086;2023-09-12T12:35:07;31.80;99.90
15765;DHT22;7983;50.744;7.086;2023-09-12T12:37:33;31.80;99.90
15765;DHT22;7983;50.744;7.086;2023-09-12T12:40:00;31.80;99.90
15765;DHT22;7983;50.744;7.086;2023-09-12T12:42:33;31.70;99.90
15765;DHT22;7983;50.744;7.086;2023-09-12T12:44:59;31.70;99.90
15765;DHT22;7983;50.744;7.086;2023-09-12T12:47:25;31.70;99.90
15765;DHT22;7983;50.744;7.086;2023-09-12T12:49:54;31.70;99.90
15765;DHT22;7983;50.744;7.086;2023-09-12T12:52:25;31.70;99.90
15765;DHT22;7983;50.744;7.086;2023-09-12T12:54:51;31.60;99.60
15765;DHT22;7983;50.744;7.086;2023-09-12T12:57:20;31.40;99.40
15765;DHT22;7983;50.744;7.086;2023-09-12T12:59:49;31.30;99.40
15765;DHT22;7983;50.744;7.086;2023-09-12T13:02:15;31.20;99.40
15765;DHT22;7983;50.744;7.086;2023-09-12T13:04:44;31.10;99.70
15765;DHT22;7983;50.744;7.086;2023-09-12T13:07:09;31.10;99.20
15765;DHT22;7983;50.744;7.086;2023-09-12T13:09:36;31.00;99.30
15765;DHT22;7983;50.744;7.086;2023-09-12T13:12:03;30.90;98.80
15765;DHT22;7983;50.744;7.086;2023-09-12T13:14:32;30.80;98.90
15765;DHT22;7983;50.744;7.086;2023-09-12T13:16:58;30.60;98.80
15765;DHT22;7983;50.744;7.086;2023-09-12T13:19:25;30.50;98.70
15765;DHT22;7983;50.744;7.086;2023-09-12T13:21:51;30.40;98.70
15765;DHT22;7983;50.744;7.086;2023-09-12T13:24:16;30.30;98.80
15765;DHT22;7983;50.744;7.086;2023-09-12T13:26:44;30.10;98.90
15765;DHT22;7983;50.744;7.086;2023-09-12T13:29:10;30.00;98.90
15765;DHT22;7983;50.744;7.086;2023-09-12T13:31:36;29.90;99.20
15765;DHT22;7983;50.744;7.086;2023-09-12T13:34:01;29.90;99.40
15765;DHT22;7983;50.744;7.086;2023-09-12T13:36:28;29.80;99.40
15765;DHT22;7983;50.744;7.086;2023-09-12T13:38:56;29.70;99.60
15765;DHT22;7983;50.744;7.086;2023-09-12T13:41:26;29.70;99.40
15765;DHT22;7983;50.744;7.086;2023-09-12T13:43:56;29.70;99.70
15765;DHT22;7983;50.744;7.086;2023-09-12T13:46:24;29.60;99.50
15765;DHT22;7983;50.744;7.086;2023-09-12T13:48:50;29.60;99.70
15765;DHT22;7983;50.744;7.086;2023-09-12T13:51:18;29.60;99.70
15765;DHT22;7983;50.744;7.086;2023-09-12T13:53:43;29.60;99.80
15765;DHT22;7983;50.744;7.086;2023-09-12T13:56:09;29.60;99.80
15765;DHT22;7983;50.744;7.086;2023-09-12T13:58:35;29.50;99.80
15765;DHT22;7983;50.744;7.086;2023-09-12T14:01:00;29.50;99.90
15765;DHT22;7983;50.744;7.086;2023-09-12T14:03:28;29.50;99.80
15765;DHT22;7983;50.744;7.086;2023-09-12T14:05:59;29.40;99.80
15765;DHT22;7983;50.744;7.086;2023-09-12T14:08:24;29.40;99.80
15765;DHT22;7983;50.744;7.086;2023-09-12T14:10:53;29.40;99.90
15765;DHT22;7983;50.744;7.086;2023-09-12T14:13:21;29.30;99.90
15765;DHT22;7983;50.744;7.086;2023-09-12T14:15:47;29.30;99.90
15765;DHT22;7983;50.744;7.086;2023-09-12T14:18:15;29.20;99.90
15765;DHT22;7983;50.744;7.086;2023-09-12T14:20:43;29.20;99.90
15765;DHT22;7983;50.744;7.086;2023-09-12T14:23:09;29.20;99.90
15765;DHT22;7983;50.744;7.086;2023-09-12T14:25:37;29.10;99.90
15765;DHT22;7983;50.744;7.086;2023-09-12T14:28:02;29.10;99.90
15765;DHT22;7983;50.744;7.086;2023-09-12T14:30:30;29.00;99.90
15765;DHT22;7983;50.744;7.086;2023-09-12T14:33:05;29.00;99.90
15765;DHT22;7983;50.744;7.086;2023-09-12T14:35:33;29.00;99.90
15765;DHT22;7983;50.744;7.086;2023-09-12T14:37:59;29.00;99.90
15765;DHT22;7983;50.744;7.086;2023-09-12T14:40:24;29.00;99.90
15765;DHT22;7983;50.744;7.086;2023-09-12T14:42:52;29.00;99.90
15765;DHT22;7983;50.744;7.086;2023-09-12T14:45:21;29.00;99.90
15765;DHT22;7983;50.744;7.086;2023-09-12T14:47:47;29.10;99.90
15765;DHT22;7983;50.744;7.086;2023-09-12T14:50:17;29.10;99.90
15765;DHT22;7983;50.744;7.086;2023-09-12T14:52:42;29.20;99.90
15765;DHT22;7983;50.744;7.086;2023-09-12T14:55:09;29.30;99.90
15765;DHT22;7983;50.744;7.086;2023-09-12T14:57:37;29.40;99.90
15765;DHT22;7983;50.744;7.086;2023-09-12T15:00:05;29.40;99.90
15765;DHT22;7983;50.744;7.086;2023-09-12T15:02:33;29.50;99.90
15765;DHT22;7983;50.744;7.086;2023-09-12T15:05:00;29.50;99.90
15765;DHT22;7983;50.744;7.086;2023-09-12T15:07:29;29.50;99.90
15765;DHT22;7983;50.744;7.086;2023-09-12T15:09:56;29.60;99.90
15765;DHT22;7983;50.744;7.086;2023-09-12T15:12:22;29.60;99.90
15765;DHT22;7983;50.744;7.086;2023-09-12T15:14:47;29.70;99.90
15765;DHT22;7983;50.744;7.086;2023-09-12T15:17:14;29.70;99.90
15765;DHT22;7983;50.744;7.086;2023-09-12T15:19:42;29.80;99.90
15765;DHT22;7983;50.744;7.086;2023-09-12T15:22:08;29.70;99.90
15765;DHT22;7983;50.744;7.086;2023-09-12T15:24:34;29.60;99.90
15765;DHT22;7983;50.744;7.086;2023-09-12T15:26:59;29.60;99.90
15765;DHT22;7983;50.744;7.086;2023-09-12T15:29:27;29.50;99.90
15765;DHT22;7983;50.744;7.086;2023-09-12T15:31:56;29.40;99.90
15765;DHT22;7983;50.744;7.086;2023-09-12T15:34:22;29.30;99.90
15765;DHT22;7983;50.744;7.086;2023-09-12T15:36:48;29.10;99.90
15765;DHT22;7983;50.744;7.086;2023-09-12T15:39:14;29.00;99.90
15765;DHT22;7983;50.744;7.086;2023-09-12T15:41:42;28.90;99.90
15765;DHT22;7983;50.744;7.086;2023-09-12T15:44:07;28.90;99.90
15765;DHT22;7983;50.744;7.086;2023-09-12T15:46:35;28.70;99.90
15765;DHT22;7983;50.744;7.086;2023-09-12T15:49:03;28.60;99.90
15765;DHT22;7983;50.744;7.086;2023-09-12T15:51:30;28.50;99.90
15765;DHT22;7983;50.744;7.086;2023-09-12T15:53:58;28.50;99.90
15765;DHT22;7983;50.744;7.086;2023-09-12T15:56:26;28.40;99.90
15765;DHT22;7983;50.744;7.086;2023-09-12T15:58:54;28.30;99.90
15765;DHT22;7983;50.744;7.086;2023-09-12T16:01:21;28.20;99.90
15765;DHT22;7983;50.744;7.086;2023-09-12T16:03:49;28.20;99.90
15765;DHT22;7983;50.744;7.086;2023-09-12T16:06:17;28.10;99.90
15765;DHT22;7983;50.744;7.086;2023-09-12T16:08:45;28.10;99.90
15765;DHT22;7983;50.744;7.086;2023-09-12T16:11:13;28.00;99.90
15765;DHT22;7983;50.744;7.086;2023-09-12T16:13:41;27.90;99.90